createdAt,value
2023-06-17T00:00:36.908Z,47.06
2023-06-17T00:02:39.697Z,47.29
2023-06-17T00:04:42.364Z,47.33
2023-06-17T00:06:44.993Z,47.59
2023-06-17T00:08:47.653Z,47.63
2023-06-17T00:10:51.650Z,47.51
2023-06-17T00:12:55.587Z,47.43
2023-06-17T00:14:58.463Z,47.50
2023-06-17T00:17:01.909Z,47.64
2023-06-17T00:19:05.457Z,47.56
2023-06-17T00:21:10.293Z,47.40
2023-06-17T00:23:13.143Z,47.65
2023-06-17T00:25:15.812Z,47.81
2023-06-17T00:27:19.869Z,47.91
2023-06-17T00:29:22.788Z,48.01
2023-06-17T00:31:27.862Z,47.62
2023-06-17T00:33:30.585Z,47.05
2023-06-17T00:35:33.639Z,47.11
2023-06-17T00:37:36.263Z,47.07
2023-06-17T00:39:40.041Z,47.03
2023-06-17T00:41:42.682Z,46.93
2023-06-17T00:43:46.977Z,46.97
2023-06-17T00:45:49.698Z,46.99
2023-06-17T00:47:53.462Z,47.34
2023-06-17T00:49:56.463Z,47.28
2023-06-17T00:54:14.848Z,47.25
2023-06-17T00:56:18.888Z,47.17
2023-06-17T00:58:21.714Z,47.43
2023-06-17T01:00:26.133Z,47.64
2023-06-17T01:02:29.134Z,47.93
2023-06-17T01:04:32.911Z,48.00
2023-06-17T01:06:42.475Z,47.95
2023-06-17T01:08:52.388Z,47.98
2023-06-17T01:11:01.807Z,48.06
2023-06-17T01:13:06.631Z,48.19
2023-06-17T01:15:11.748Z,48.20
2023-06-17T01:17:19.039Z,48.32
2023-06-17T01:19:25.911Z,48.09
2023-06-17T01:21:29.755Z,47.98
2023-06-17T01:23:36.018Z,48.04
2023-06-17T01:25:40.909Z,48.10
2023-06-17T01:27:43.560Z,47.96
2023-06-17T01:29:50.228Z,47.52
2023-06-17T01:31:53.102Z,47.05
2023-06-17T01:33:58.426Z,46.97
2023-06-17T01:36:05.505Z,46.80
2023-06-17T01:38:11.957Z,46.92
2023-06-17T01:40:16.307Z,47.12
2023-06-17T01:42:23.052Z,46.95
2023-06-17T01:44:27.483Z,47.15
2023-06-17T01:46:30.555Z,47.06
2023-06-17T01:48:33.566Z,47.34
2023-06-17T01:50:36.414Z,47.42
2023-06-17T01:52:39.208Z,47.50
2023-06-17T01:54:41.877Z,47.64
2023-06-17T01:56:44.585Z,48.41
2023-06-17T01:58:48.602Z,48.28
2023-06-17T02:00:51.568Z,47.78
2023-06-17T02:02:54.316Z,47.46
2023-06-17T02:04:57.131Z,47.53
2023-06-17T02:07:00.390Z,47.51
2023-06-17T02:09:04.045Z,48.06
2023-06-17T02:11:06.716Z,48.06
2023-06-17T02:13:09.640Z,48.35
2023-06-17T02:15:13.871Z,48.77
2023-06-17T02:17:16.760Z,48.73
2023-06-17T02:19:19.412Z,48.92
2023-06-17T02:21:22.142Z,48.73
2023-06-17T02:23:24.812Z,48.71
2023-06-17T02:25:27.471Z,48.55
2023-06-17T02:27:30.147Z,48.59
2023-06-17T02:29:32.794Z,48.49
2023-06-17T02:31:36.891Z,48.69
2023-06-17T02:33:39.667Z,48.99
2023-06-17T02:35:42.348Z,49.21
2023-06-17T02:37:45.641Z,49.46
2023-06-17T02:39:48.321Z,49.16
2023-06-17T02:41:50.963Z,49.19
2023-06-17T02:43:53.617Z,49.29
2023-06-17T02:45:56.220Z,49.20
2023-06-17T02:48:00.519Z,49.35
2023-06-17T02:50:03.943Z,49.61
2023-06-17T02:52:07.608Z,49.69
2023-06-17T02:54:11.908Z,49.82
2023-06-17T02:56:14.564Z,49.92
2023-06-17T02:58:19.982Z,49.68
2023-06-17T03:00:23.347Z,50.03
2023-06-17T03:02:26.275Z,50.18
2023-06-17T03:04:35.915Z,50.12
2023-06-17T03:06:38.855Z,50.00
2023-06-17T03:08:43.046Z,49.81
2023-06-17T03:10:45.648Z,49.69
2023-06-17T03:12:48.275Z,49.88
2023-06-17T03:14:53.701Z,50.03
2023-06-17T03:16:58.650Z,50.09
2023-06-17T03:19:01.662Z,50.22
2023-06-17T03:21:05.943Z,50.27
2023-06-17T03:23:08.634Z,50.16
2023-06-17T03:25:14.219Z,50.29
2023-06-17T03:27:16.901Z,50.51
2023-06-17T03:29:20.444Z,50.43
2023-06-17T03:31:23.776Z,51.00
2023-06-17T03:33:26.494Z,50.81
2023-06-17T03:35:29.166Z,50.85
2023-06-17T03:37:33.136Z,50.21
2023-06-17T03:39:35.850Z,50.04
2023-06-17T03:41:38.535Z,50.52
2023-06-17T03:43:41.647Z,50.68
2023-06-17T03:45:44.439Z,50.67
2023-06-17T03:47:47.519Z,50.73
2023-06-17T03:49:50.197Z,50.58
2023-06-17T03:51:52.822Z,50.65
2023-06-17T03:53:56.803Z,50.44
2023-06-17T03:55:59.561Z,50.55
2023-06-17T03:58:02.194Z,50.69
2023-06-17T04:00:07.305Z,50.82
2023-06-17T04:02:10.021Z,50.83
2023-06-17T04:04:12.679Z,50.71
2023-06-17T04:06:17.512Z,50.72
2023-06-17T04:08:23.331Z,50.49
2023-06-17T04:10:28.075Z,50.77
2023-06-17T04:12:30.989Z,50.92
2023-06-17T04:14:33.658Z,50.87
2023-06-17T04:16:36.893Z,51.01
2023-06-17T04:18:41.661Z,51.07
2023-06-17T04:20:45.596Z,50.91
2023-06-17T04:22:48.339Z,50.43
2023-06-17T04:24:57.158Z,50.05
2023-06-17T04:27:01.242Z,49.95
2023-06-17T04:29:04.594Z,50.47
2023-06-17T04:31:11.905Z,50.24
2023-06-17T04:33:15.819Z,50.23
2023-06-17T04:35:20.143Z,50.05
2023-06-17T04:37:23.218Z,49.94
2023-06-17T04:39:27.482Z,50.29
2023-06-17T04:41:33.703Z,50.21
2023-06-17T04:43:38.908Z,49.93
2023-06-17T04:45:41.567Z,50.02
2023-06-17T04:47:44.320Z,49.83
2023-06-17T04:49:49.115Z,49.80
2023-06-17T04:51:53.839Z,49.89
2023-06-17T04:53:57.870Z,49.35
2023-06-17T04:56:01.629Z,49.51
2023-06-17T04:58:05.859Z,49.45
2023-06-17T05:00:12.420Z,49.46
2023-06-17T05:02:15.461Z,49.48
2023-06-17T05:04:18.154Z,49.17
2023-06-17T05:06:26.188Z,49.20
2023-06-17T05:08:28.844Z,49.32
2023-06-17T05:10:31.471Z,49.10
2023-06-17T05:12:34.091Z,48.79
2023-06-17T05:14:36.758Z,48.67
2023-06-17T05:16:41.411Z,48.90
2023-06-17T05:18:44.135Z,48.85
2023-06-17T05:20:46.774Z,48.71
2023-06-17T05:22:49.551Z,49.21
2023-06-17T05:24:52.202Z,49.38
2023-06-17T05:26:54.782Z,49.36
2023-06-17T05:28:58.208Z,49.09
2023-06-17T05:31:00.851Z,48.94
2023-06-17T05:33:04.963Z,48.85
2023-06-17T05:35:08.473Z,48.74
2023-06-17T05:37:11.438Z,48.79
2023-06-17T05:39:14.289Z,48.65
2023-06-17T05:41:16.985Z,49.15
2023-06-17T05:43:19.645Z,49.37
2023-06-17T05:45:22.388Z,49.66
2023-06-17T05:47:25.128Z,49.70
2023-06-17T05:49:29.163Z,49.47
2023-06-17T05:51:31.824Z,49.60
2023-06-17T05:53:34.456Z,49.72
2023-06-17T05:55:37.162Z,49.39
2023-06-17T05:57:39.964Z,49.50
2023-06-17T05:59:42.612Z,49.69
2023-06-17T06:01:45.307Z,50.13
2023-06-17T06:03:48.041Z,50.04
2023-06-17T06:05:52.100Z,49.81
2023-06-17T06:07:54.764Z,49.92
2023-06-17T06:09:57.388Z,49.84
2023-06-17T06:12:00.083Z,49.51
2023-06-17T06:14:02.771Z,49.61
2023-06-17T06:16:05.809Z,49.82
2023-06-17T06:18:08.639Z,49.94
2023-06-17T06:20:12.150Z,49.79
2023-06-17T06:22:16.154Z,49.61
2023-06-17T06:24:18.884Z,49.53
2023-06-17T06:26:22.413Z,49.88
2023-06-17T06:28:25.169Z,50.28
2023-06-17T06:30:27.805Z,50.60
2023-06-17T06:32:30.634Z,50.45
2023-06-17T06:34:33.335Z,50.28
2023-06-17T06:36:36.766Z,50.41
2023-06-17T06:38:43.291Z,50.76
2023-06-17T06:40:46.071Z,50.75
2023-06-17T06:42:48.703Z,50.68
2023-06-17T06:44:51.326Z,50.94
2023-06-17T06:46:56.767Z,50.79
2023-06-17T06:49:00.259Z,50.80
2023-06-17T06:51:03.821Z,50.47
2023-06-17T06:53:06.510Z,50.10
2023-06-17T06:55:10.866Z,50.60
2023-06-17T06:57:13.592Z,50.65
2023-06-17T06:59:16.362Z,50.70
2023-06-17T07:01:19.232Z,50.72
2023-06-17T07:03:22.024Z,50.41
2023-06-17T07:05:24.868Z,50.70
2023-06-17T07:07:27.570Z,50.55
2023-06-17T07:09:30.273Z,50.72
2023-06-17T07:11:34.301Z,50.79
2023-06-17T07:13:37.049Z,50.67
2023-06-17T07:15:39.660Z,50.81
2023-06-17T07:17:42.459Z,50.88
2023-06-17T07:19:45.120Z,50.38
2023-06-17T07:21:49.826Z,50.32
2023-06-17T07:26:00.167Z,50.61
2023-06-17T07:28:04.414Z,50.52
2023-06-17T07:30:09.203Z,50.46
2023-06-17T07:32:11.985Z,50.53
2023-06-17T07:34:14.725Z,50.58
2023-06-17T07:36:17.562Z,50.36
2023-06-17T07:38:20.479Z,50.32
2023-06-17T07:40:23.344Z,50.11
2023-06-17T07:42:26.197Z,50.41
2023-06-17T07:44:33.522Z,50.16
2023-06-17T07:46:36.173Z,50.06
2023-06-17T07:48:38.783Z,50.16
2023-06-17T07:50:41.399Z,49.82
2023-06-17T07:52:47.108Z,49.86
2023-06-17T07:54:52.320Z,49.70
2023-06-17T07:56:55.388Z,47.91
2023-06-17T07:58:58.137Z,48.28
2023-06-17T08:01:02.790Z,48.40
2023-06-17T08:03:07.870Z,47.95
2023-06-17T08:05:11.463Z,47.60
2023-06-17T08:07:14.253Z,47.75
2023-06-17T08:09:16.955Z,47.36
2023-06-17T08:11:19.930Z,47.54
2023-06-17T08:13:22.664Z,47.34
2023-06-17T08:15:25.383Z,47.42
2023-06-17T08:17:29.589Z,45.19
2023-06-17T08:19:35.233Z,45.31
2023-06-17T08:21:43.308Z,45.59
2023-06-17T08:26:12.802Z,46.04
2023-06-17T08:28:15.605Z,46.52
2023-06-17T08:30:29.471Z,46.33
2023-06-17T08:32:41.216Z,46.24
2023-06-17T08:34:53.488Z,46.07
2023-06-17T08:37:05.145Z,45.05
2023-06-17T08:39:09.198Z,43.95
2023-06-17T08:41:22.560Z,43.76
2023-06-17T08:43:27.416Z,42.87
2023-06-17T08:45:34.660Z,42.68
2023-06-17T08:47:40.644Z,41.50
2023-06-17T08:49:50.773Z,41.20
2023-06-17T08:51:53.874Z,39.41
2023-06-17T08:54:00.356Z,39.71
2023-06-17T08:56:06.646Z,40.44
2023-06-17T08:58:23.046Z,40.54
2023-06-17T09:00:39.807Z,40.62
2023-06-17T09:02:47.690Z,40.44
2023-06-17T09:04:53.801Z,39.96
2023-06-17T09:07:00.496Z,40.27
2023-06-17T09:09:13.358Z,40.11
2023-06-17T09:11:19.129Z,39.52
2023-06-17T09:13:22.134Z,39.77
2023-06-17T09:15:27.783Z,40.20
2023-06-17T09:17:59.122Z,40.22
2023-06-17T09:20:17.576Z,39.16
2023-06-17T09:22:20.593Z,37.88
2023-06-17T09:24:32.165Z,37.52
2023-06-17T09:28:48.545Z,37.26
2023-06-17T09:30:54.746Z,37.61
2023-06-17T09:32:58.951Z,37.96
2023-06-17T09:35:05.416Z,37.88
2023-06-17T09:37:44.605Z,38.19
2023-06-17T09:40:01.278Z,36.27
2023-06-17T09:42:15.840Z,34.73
2023-06-17T09:47:14.787Z,33.45
2023-06-17T09:49:27.225Z,33.15
2023-06-17T09:53:50.909Z,30.79
2023-06-17T09:56:12.950Z,28.20
2023-06-17T09:58:45.005Z,30.14
2023-06-17T10:00:53.014Z,30.76
2023-06-17T10:03:04.392Z,31.98
2023-06-17T10:05:08.790Z,32.33
2023-06-17T10:07:41.157Z,32.30
2023-06-17T10:09:44.106Z,32.25
2023-06-17T10:11:50.229Z,32.18
2023-06-17T10:13:58.300Z,32.58
2023-06-17T10:16:03.327Z,32.62
2023-06-17T10:18:09.148Z,33.08
2023-06-17T10:20:14.077Z,33.02
2023-06-17T10:22:20.937Z,33.07
2023-06-17T10:24:25.367Z,32.87
2023-06-17T10:26:31.988Z,32.73
2023-06-17T10:28:58.576Z,32.64
2023-06-17T10:31:10.711Z,31.78
2023-06-17T10:33:14.019Z,31.99
2023-06-17T10:35:16.740Z,32.16
2023-06-17T10:37:28.784Z,32.98
2023-06-17T10:39:31.443Z,32.61
2023-06-17T10:41:59.038Z,32.36
2023-06-17T10:44:03.383Z,31.63
2023-06-17T10:46:07.351Z,31.64
2023-06-17T10:48:16.474Z,31.95
2023-06-17T10:50:23.458Z,32.18
2023-06-17T10:52:26.268Z,31.87
2023-06-17T10:54:29.392Z,32.39
2023-06-17T10:56:33.881Z,32.71
2023-06-17T10:58:38.358Z,31.70
2023-06-17T11:00:41.014Z,31.74
2023-06-17T11:02:45.012Z,32.44
2023-06-17T11:04:49.573Z,32.30
2023-06-17T11:06:52.240Z,32.02
2023-06-17T11:08:54.819Z,31.99
2023-06-17T11:11:07.980Z,31.31
2023-06-17T11:13:10.589Z,31.08
2023-06-17T11:15:13.252Z,30.95
2023-06-17T11:17:16.098Z,31.23
2023-06-17T11:19:20.130Z,31.19
2023-06-17T11:21:22.798Z,30.02
2023-06-17T11:23:27.410Z,30.38
2023-06-17T11:25:43.588Z,30.44
2023-06-17T11:27:48.120Z,30.75
2023-06-17T11:29:50.963Z,29.87
2023-06-17T11:31:53.687Z,30.08
2023-06-17T11:34:00.366Z,29.57
2023-06-17T11:36:08.521Z,29.71
2023-06-17T11:38:12.402Z,29.58
2023-06-17T11:40:15.142Z,29.42
2023-06-17T11:42:17.884Z,30.02
2023-06-17T11:44:21.044Z,30.42
2023-06-17T11:46:25.710Z,30.47
2023-06-17T11:48:29.639Z,30.81
2023-06-17T11:50:32.311Z,30.62
2023-06-17T11:52:36.859Z,30.50
2023-06-17T11:54:46.687Z,31.25
2023-06-17T11:56:50.002Z,31.26
2023-06-17T11:58:54.000Z,30.75
2023-06-17T12:01:00.467Z,30.88
2023-06-17T12:03:04.890Z,31.39
2023-06-17T12:05:07.991Z,31.39
2023-06-17T12:07:10.773Z,31.53
2023-06-17T12:09:16.660Z,31.68
2023-06-17T12:11:23.996Z,31.89
2023-06-17T12:13:28.503Z,31.88
2023-06-17T12:15:36.755Z,31.97
2023-06-17T12:17:40.347Z,31.93
2023-06-17T12:19:42.995Z,30.85
2023-06-17T12:21:45.987Z,30.85
2023-06-17T12:23:50.297Z,31.14
2023-06-17T12:25:54.537Z,30.83
2023-06-17T12:27:59.103Z,30.25
2023-06-17T12:30:02.277Z,30.03
2023-06-17T12:32:05.953Z,30.49
2023-06-17T12:34:08.631Z,29.96
2023-06-17T12:36:11.317Z,29.83
2023-06-17T12:38:14.008Z,29.73
2023-06-17T12:40:16.622Z,28.61
2023-06-17T12:42:20.777Z,28.05
2023-06-17T12:44:23.515Z,28.21
2023-06-17T12:46:26.309Z,28.50
2023-06-17T12:48:30.114Z,29.13
2023-06-17T12:50:34.646Z,29.91
2023-06-17T12:52:37.319Z,29.77
2023-06-17T12:54:40.179Z,28.91
2023-06-17T12:56:43.506Z,28.77
2023-06-17T12:58:47.626Z,28.01
2023-06-17T13:00:50.408Z,27.12
2023-06-17T13:02:53.052Z,26.07
2023-06-17T13:04:56.521Z,25.61
2023-06-17T13:06:59.355Z,24.99
2023-06-17T13:09:01.986Z,24.47
2023-06-17T13:11:04.656Z,23.95
2023-06-17T13:13:08.876Z,23.66
2023-06-17T13:15:13.263Z,24.06
2023-06-17T13:17:16.068Z,24.99
2023-06-17T13:19:19.452Z,23.88
2023-06-17T13:21:22.370Z,23.39
2023-06-17T13:23:24.996Z,23.38
2023-06-17T13:25:27.913Z,23.02
2023-06-17T13:27:31.716Z,22.83
2023-06-17T13:29:34.836Z,22.32
2023-06-17T13:31:39.236Z,22.74
2023-06-17T13:33:42.271Z,23.05
2023-06-17T13:35:45.031Z,22.81
2023-06-17T13:37:47.709Z,23.40
2023-06-17T13:39:50.422Z,23.55
2023-06-17T13:41:53.162Z,22.86
2023-06-17T13:43:55.778Z,22.42
2023-06-17T13:45:58.519Z,21.71
2023-06-17T13:48:02.673Z,22.10
2023-06-17T13:50:08.740Z,22.40
2023-06-17T13:52:13.733Z,21.54
2023-06-17T13:54:19.413Z,21.73
2023-06-17T13:56:22.061Z,22.17
2023-06-17T13:58:24.692Z,21.69
2023-06-17T14:00:27.560Z,21.89
2023-06-17T14:02:30.196Z,22.24
2023-06-17T14:04:34.682Z,21.65
2023-06-17T14:06:37.320Z,21.26
2023-06-17T14:08:40.040Z,21.09
2023-06-17T14:10:42.763Z,21.39
2023-06-17T14:12:45.420Z,23.15
2023-06-17T14:14:48.078Z,22.64
2023-06-17T14:16:50.903Z,22.94
2023-06-17T14:18:53.591Z,23.09
2023-06-17T14:20:57.592Z,23.51
2023-06-17T14:23:01.185Z,22.78
2023-06-17T14:25:04.017Z,22.01
2023-06-17T14:27:43.201Z,22.95
2023-06-17T14:29:45.843Z,23.64
2023-06-17T14:31:48.478Z,22.85
2023-06-17T14:33:51.357Z,22.66
2023-06-17T14:35:53.973Z,23.29
2023-06-17T14:37:57.952Z,23.55
2023-06-17T14:40:02.173Z,23.27
2023-06-17T14:42:05.370Z,22.75
2023-06-17T14:44:08.000Z,22.73
2023-06-17T14:46:11.368Z,21.31
2023-06-17T14:48:14.044Z,21.78
2023-06-17T14:50:16.759Z,22.28
2023-06-17T14:52:19.484Z,21.52
2023-06-17T14:54:23.487Z,21.68
2023-06-17T14:56:28.636Z,21.80
2023-06-17T14:58:31.300Z,21.57
2023-06-17T15:00:33.980Z,21.58
2023-06-17T15:02:52.893Z,21.91
2023-06-17T15:04:55.586Z,21.19
2023-06-17T15:06:58.282Z,21.17
2023-06-17T15:09:10.368Z,21.01
2023-06-17T15:11:14.434Z,21.45
2023-06-17T15:13:17.088Z,21.13
2023-06-17T15:15:20.055Z,21.07
2023-06-17T15:17:23.190Z,21.40
2023-06-17T15:19:25.838Z,21.75
2023-06-17T15:21:28.454Z,22.31
2023-06-17T15:23:31.194Z,22.19
2023-06-17T15:25:34.119Z,22.42
2023-06-17T15:27:38.099Z,22.69
2023-06-17T15:29:41.297Z,22.08
2023-06-17T15:31:45.258Z,21.66
2023-06-17T15:33:47.900Z,22.30
2023-06-17T15:35:50.645Z,22.36
2023-06-17T15:37:53.349Z,21.66
2023-06-17T15:39:55.996Z,22.35
2023-06-17T15:41:58.611Z,22.05
2023-06-17T15:44:03.270Z,22.38
2023-06-17T15:46:05.897Z,21.90
2023-06-17T15:48:08.589Z,21.66
2023-06-17T15:50:12.113Z,22.51
2023-06-17T15:52:14.752Z,22.27
2023-06-17T15:54:19.178Z,22.45
2023-06-17T15:56:22.353Z,23.02
2023-06-17T15:58:25.033Z,23.38
2023-06-17T16:00:28.995Z,22.96
2023-06-17T16:02:31.718Z,22.65
2023-06-17T16:04:34.904Z,23.31
2023-06-17T16:06:37.576Z,22.64
2023-06-17T16:08:40.601Z,23.42
2023-06-17T16:10:43.279Z,22.16
2023-06-17T16:12:46.083Z,23.04
2023-06-17T16:14:48.695Z,22.81
2023-06-17T16:16:52.657Z,22.12
2023-06-17T16:18:55.279Z,23.10
2023-06-17T16:20:57.989Z,23.53
2023-06-17T16:23:00.706Z,23.64
2023-06-17T16:25:03.459Z,23.78
2023-06-17T16:27:06.389Z,22.79
2023-06-17T16:29:12.357Z,22.46
2023-06-17T16:31:15.070Z,21.96
2023-06-17T16:33:19.023Z,21.84
2023-06-17T16:35:21.707Z,22.58
2023-06-17T16:37:25.701Z,23.43
2023-06-17T16:39:28.711Z,23.97
2023-06-17T16:41:31.365Z,23.30
2023-06-17T16:43:34.009Z,24.05
2023-06-17T16:45:36.720Z,24.31
2023-06-17T16:47:39.688Z,24.70
2023-06-17T16:49:43.942Z,25.11
2023-06-17T16:51:46.566Z,24.62
2023-06-17T16:53:49.180Z,24.46
2023-06-17T16:55:51.801Z,24.61
2023-06-17T16:57:54.469Z,25.10
2023-06-17T16:59:57.099Z,24.75
2023-06-17T17:02:00.715Z,24.86
2023-06-17T17:04:12.017Z,24.70
2023-06-17T17:06:16.054Z,25.46
2023-06-17T17:08:18.706Z,25.13
2023-06-17T17:10:24.385Z,25.68
2023-06-17T17:12:27.260Z,25.91
2023-06-17T17:14:29.894Z,26.32
2023-06-17T17:16:32.773Z,26.28
2023-06-17T17:18:35.556Z,26.22
2023-06-17T17:20:38.309Z,26.02
2023-06-17T17:22:43.142Z,25.76
2023-06-17T17:24:45.885Z,25.59
2023-06-17T17:26:48.522Z,26.14
2023-06-17T17:28:51.150Z,26.31
2023-06-17T17:30:53.986Z,26.61
2023-06-17T17:32:56.672Z,26.87
2023-06-17T17:34:59.375Z,26.89
2023-06-17T17:37:01.990Z,27.04
2023-06-17T17:39:07.886Z,27.30
2023-06-17T17:41:10.672Z,27.18
2023-06-17T17:43:13.360Z,27.11
2023-06-17T17:45:16.695Z,27.25
2023-06-17T17:47:19.337Z,26.93
2023-06-17T17:49:22.767Z,27.10
2023-06-17T17:51:25.745Z,27.00
2023-06-17T17:53:29.567Z,27.10
2023-06-17T17:55:33.618Z,27.00
2023-06-17T17:57:36.292Z,27.25
2023-06-17T17:59:38.876Z,27.36
2023-06-17T18:01:41.520Z,27.03
2023-06-17T18:03:44.158Z,27.13
2023-06-17T18:05:46.803Z,27.85
2023-06-17T18:07:53.725Z,27.76
2023-06-17T18:09:56.461Z,27.94
2023-06-17T18:12:00.455Z,28.51
2023-06-17T18:14:03.090Z,27.78
2023-06-17T18:16:06.154Z,27.61
2023-06-17T18:18:08.892Z,27.36
2023-06-17T18:20:11.936Z,27.54
2023-06-17T18:22:16.595Z,28.66
2023-06-17T18:24:20.672Z,28.92
2023-06-17T18:26:23.592Z,28.88
2023-06-17T18:28:27.553Z,29.21
2023-06-17T18:30:30.466Z,29.32
2023-06-17T18:32:33.199Z,29.60
2023-06-17T18:34:35.868Z,29.93
2023-06-17T18:36:38.579Z,29.93
2023-06-17T18:38:43.547Z,30.12
2023-06-17T18:40:47.352Z,29.96
2023-06-17T18:42:50.120Z,30.56
2023-06-17T18:44:54.142Z,31.24
2023-06-17T18:46:57.404Z,31.74
2023-06-17T18:49:00.193Z,32.70
2023-06-17T18:51:03.144Z,33.61
2023-06-17T18:53:06.760Z,33.62
2023-06-17T18:55:09.751Z,33.97
2023-06-17T18:57:12.493Z,34.13
2023-06-17T18:59:15.729Z,34.50
2023-06-17T19:01:19.933Z,34.52
2023-06-17T19:03:22.612Z,35.17
2023-06-17T19:05:25.223Z,35.81
2023-06-17T19:07:27.862Z,36.03
2023-06-17T19:09:30.591Z,36.21
2023-06-17T19:11:33.223Z,36.06
2023-06-17T19:13:35.974Z,36.55
2023-06-17T19:15:39.758Z,36.63
2023-06-17T19:17:44.105Z,36.71
2023-06-17T19:19:47.789Z,36.32
2023-06-17T19:21:50.836Z,35.50
2023-06-17T19:23:54.080Z,35.46
2023-06-17T19:25:56.862Z,35.52
2023-06-17T19:27:59.823Z,36.39
2023-06-17T19:30:05.249Z,37.00
2023-06-17T19:32:08.648Z,36.99
2023-06-17T19:34:12.688Z,37.23
2023-06-17T19:36:15.431Z,36.93
2023-06-17T19:38:18.084Z,37.24
2023-06-17T19:40:21.052Z,36.78
2023-06-17T19:42:24.265Z,37.02
2023-06-17T19:44:33.367Z,36.86
2023-06-17T19:46:36.357Z,37.03
2023-06-17T19:48:39.191Z,37.37
2023-06-17T19:50:43.986Z,37.32
2023-06-17T19:52:46.680Z,38.05
2023-06-17T19:54:49.366Z,38.54
2023-06-17T19:56:52.327Z,39.27
2023-06-17T19:58:54.954Z,38.89
2023-06-17T20:01:01.731Z,38.71
2023-06-17T20:03:05.087Z,38.87
2023-06-17T20:05:09.578Z,38.71
2023-06-17T20:07:13.880Z,38.58
2023-06-17T20:09:16.684Z,38.72
2023-06-17T20:11:20.277Z,38.30
2023-06-17T20:13:23.380Z,38.16
2023-06-17T20:15:26.927Z,37.92
2023-06-17T20:17:29.758Z,37.84
2023-06-17T20:19:32.414Z,38.56
2023-06-17T20:21:35.069Z,38.90
2023-06-17T20:23:40.639Z,38.77
2023-06-17T20:25:44.398Z,38.38
2023-06-17T20:27:48.205Z,38.28
2023-06-17T20:29:51.755Z,38.12
2023-06-17T20:31:54.414Z,38.03
2023-06-17T20:33:57.003Z,37.67
2023-06-17T20:35:59.679Z,38.04
2023-06-17T20:38:02.929Z,37.84
2023-06-17T20:40:11.462Z,37.65
2023-06-17T20:42:14.221Z,37.69
2023-06-17T20:44:16.975Z,37.55
2023-06-17T20:46:19.677Z,37.15
2023-06-17T20:48:22.313Z,37.12
2023-06-17T20:50:26.280Z,37.05
2023-06-17T20:52:30.741Z,36.92
2023-06-17T20:57:00.765Z,37.91
2023-06-17T20:59:03.839Z,38.24
2023-06-17T21:01:06.562Z,37.90
2023-06-17T21:03:11.485Z,38.03
2023-06-17T21:05:14.185Z,38.49
2023-06-17T21:07:16.996Z,38.48
2023-06-17T21:09:20.047Z,38.85
2023-06-17T21:11:23.041Z,39.42
2023-06-17T21:13:27.040Z,39.80
2023-06-17T21:15:29.778Z,39.88
2023-06-17T21:17:32.465Z,40.16
2023-06-17T21:19:35.142Z,39.97
2023-06-17T21:21:37.867Z,39.92
2023-06-17T21:23:40.861Z,40.17
2023-06-17T21:25:43.762Z,39.97
2023-06-17T21:27:47.144Z,39.96
2023-06-17T21:29:51.175Z,40.04
2023-06-17T21:31:53.915Z,39.45
2023-06-17T21:33:56.560Z,39.63
2023-06-17T21:35:59.465Z,39.56
2023-06-17T21:38:02.119Z,38.98
2023-06-17T21:40:05.280Z,38.81
2023-06-17T21:42:08.181Z,38.53
2023-06-17T21:44:10.831Z,38.16
2023-06-17T21:46:14.968Z,38.15
2023-06-17T21:48:18.114Z,38.65
2023-06-17T21:50:21.292Z,38.86
2023-06-17T21:52:24.117Z,38.85
2023-06-17T21:54:26.904Z,39.02
2023-06-17T21:56:29.646Z,38.85
2023-06-17T21:58:32.282Z,39.24
2023-06-17T22:00:34.963Z,38.87
2023-06-17T22:02:39.063Z,38.80
2023-06-17T22:04:41.766Z,39.00
2023-06-17T22:06:44.867Z,39.24
2023-06-17T22:09:18.328Z,39.15
2023-06-17T22:11:21.221Z,39.37
2023-06-17T22:13:23.907Z,39.77
2023-06-17T22:15:27.233Z,39.88
2023-06-17T22:17:29.977Z,39.91
2023-06-17T22:19:34.634Z,39.92
2023-06-17T22:21:37.823Z,39.22
2023-06-17T22:23:40.529Z,39.19
2023-06-17T22:25:43.497Z,38.83
2023-06-17T22:27:46.606Z,39.17
2023-06-17T22:29:49.253Z,39.18
2023-06-17T22:31:51.897Z,39.82
2023-06-17T22:33:54.561Z,40.15
2023-06-17T22:35:58.587Z,39.72
2023-06-17T22:38:01.227Z,40.05
2023-06-17T22:40:06.573Z,40.15
2023-06-17T22:42:09.310Z,40.04
2023-06-17T22:44:11.972Z,39.63
2023-06-17T22:46:14.651Z,39.38
2023-06-17T22:48:17.271Z,39.31
2023-06-17T22:50:20.264Z,39.61
2023-06-17T22:52:24.574Z,39.66
2023-06-17T22:54:27.196Z,39.61
2023-06-17T22:56:29.828Z,39.51
2023-06-17T22:58:32.714Z,39.17
2023-06-17T23:00:35.480Z,38.97
2023-06-17T23:02:38.237Z,38.86
2023-06-17T23:04:41.515Z,38.56
2023-06-17T23:06:44.197Z,39.03
2023-06-17T23:08:48.113Z,38.80
2023-06-17T23:10:50.781Z,38.31
2023-06-17T23:12:53.488Z,38.29
2023-06-17T23:14:56.196Z,38.40
2023-06-17T23:16:58.945Z,38.97
2023-06-17T23:19:02.411Z,39.31
2023-06-17T23:21:05.923Z,39.42
2023-06-17T23:23:08.576Z,39.30
2023-06-17T23:25:12.579Z,39.94
2023-06-17T23:27:16.470Z,40.57
2023-06-17T23:29:19.765Z,40.43
2023-06-17T23:31:22.426Z,40.58
2023-06-17T23:33:26.608Z,40.68
2023-06-17T23:37:47.275Z,41.87
2023-06-17T23:39:49.943Z,41.71
2023-06-17T23:41:54.504Z,41.56
2023-06-17T23:43:57.163Z,41.97
2023-06-17T23:50:24.459Z,42.49
2023-06-17T23:52:27.302Z,42.53
2023-06-17T23:54:29.927Z,42.77
2023-06-17T23:56:32.559Z,42.66
2023-06-17T23:58:35.249Z,42.92
